Amherst, Texas
Current Conditions -  °F | °C
As of 9:35 PM on Friday 24 Oct 2014 (Local Time) from KPVW Reporting Station
Clear Clear  
Wind Chill: 63°   Ceiling: Unl
Heat Index: 63°   Visibility: 10mi
Dew Point: 52°   Wind: 5mph
Humidity: 69%   Direction: 200°SSW
Pressure: 30.13"   Gusts: NA
Location:  34.01°N, 102.42°W
Report Text: KPVW 250235Z AUTO 20004KT 10SM CLR 17/11 A3013 RMK AO2 T01700113
Loading
Personal Weather Stations






























Interactive Weather Map
Tropical Storm Tracking
New forecast layout! Learn more

10-Day Weather Forecast

Advertisements
Track Severe Weather on mobile